sensor_id;sensor_type;location;lat;lon;timestamp;pressure;altitude;pressure_sealevel;temperature;humidity
62600;BME280;48671;48.922;2.346;2022-10-31T00:02:02;101765.34;;;17.30;61.02
62600;BME280;48671;48.922;2.346;2022-10-31T00:04:28;101785.31;;;17.35;61.35
62600;BME280;48671;48.922;2.346;2022-10-31T00:06:53;101778.56;;;17.29;61.29
62600;BME280;48671;48.922;2.346;2022-10-31T00:09:18;101785.16;;;17.38;61.80
62600;BME280;48671;48.922;2.346;2022-10-31T00:11:44;101789.47;;;17.39;61.50
62600;BME280;48671;48.922;2.346;2022-10-31T00:14:09;101780.19;;;17.31;61.96
62600;BME280;48671;48.922;2.346;2022-10-31T00:16:34;101793.19;;;17.35;61.67
62600;BME280;48671;48.922;2.346;2022-10-31T00:19:02;101808.59;;;17.42;61.92
62600;BME280;48671;48.922;2.346;2022-10-31T00:21:29;101805.22;;;17.40;61.66
62600;BME280;48671;48.922;2.346;2022-10-31T00:23:54;101802.78;;;17.36;61.82
62600;BME280;48671;48.922;2.346;2022-10-31T00:26:20;101788.03;;;17.33;61.67
62600;BME280;48671;48.922;2.346;2022-10-31T00:28:45;101806.19;;;17.38;61.84
62600;BME280;48671;48.922;2.346;2022-10-31T00:31:12;101794.19;;;17.32;61.84
62600;BME280;48671;48.922;2.346;2022-10-31T00:33:39;101770.59;;;17.13;61.76
62600;BME280;48671;48.922;2.346;2022-10-31T00:36:06;101787.69;;;17.22;62.12
62600;BME280;48671;48.922;2.346;2022-10-31T00:38:31;101795.59;;;17.22;62.35
62600;BME280;48671;48.922;2.346;2022-10-31T00:40:57;101778.56;;;17.12;62.06
62600;BME280;48671;48.922;2.346;2022-10-31T00:43:22;101790.63;;;17.16;62.33
62600;BME280;48671;48.922;2.346;2022-10-31T00:45:48;101793.50;;;17.11;62.30
62600;BME280;48671;48.922;2.346;2022-10-31T00:48:13;101788.09;;;17.14;62.34
62600;BME280;48671;48.922;2.346;2022-10-31T00:50:39;101802.78;;;17.18;62.60
62600;BME280;48671;48.922;2.346;2022-10-31T00:53:04;101765.09;;;17.00;62.00
62600;BME280;48671;48.922;2.346;2022-10-31T00:55:30;101797.91;;;17.11;61.94
62600;BME280;48671;48.922;2.346;2022-10-31T00:57:56;101790.38;;;17.03;61.86
62600;BME280;48671;48.922;2.346;2022-10-31T01:00:21;101795.88;;;16.98;62.47
62600;BME280;48671;48.922;2.346;2022-10-31T01:02:46;101756.72;;;16.73;62.85
62600;BME280;48671;48.922;2.346;2022-10-31T01:05:12;101780.47;;;16.91;62.33
62600;BME280;48671;48.922;2.346;2022-10-31T01:07:39;101784.00;;;16.90;62.49
62600;BME280;48671;48.922;2.346;2022-10-31T01:10:06;101793.53;;;16.92;62.58
62600;BME280;48671;48.922;2.346;2022-10-31T01:12:46;101795.22;;;16.93;63.36
62600;BME280;48671;48.922;2.346;2022-10-31T01:15:14;101767.63;;;16.84;63.09
62600;BME280;48671;48.922;2.346;2022-10-31T01:17:40;101769.41;;;16.84;63.01
62600;BME280;48671;48.922;2.346;2022-10-31T01:20:07;101780.28;;;16.94;63.07
62600;BME280;48671;48.922;2.346;2022-10-31T01:22:33;101751.06;;;16.82;63.20
62600;BME280;48671;48.922;2.346;2022-10-31T01:24:58;101732.03;;;16.77;63.44
62600;BME280;48671;48.922;2.346;2022-10-31T01:27:24;101734.19;;;16.87;63.19
62600;BME280;48671;48.922;2.346;2022-10-31T01:29:49;101743.50;;;16.94;63.18
62600;BME280;48671;48.922;2.346;2022-10-31T01:32:14;101756.03;;;17.06;63.73
62600;BME280;48671;48.922;2.346;2022-10-31T01:34:40;101752.56;;;17.05;63.61
62600;BME280;48671;48.922;2.346;2022-10-31T01:37:05;101742.34;;;16.99;63.07
62600;BME280;48671;48.922;2.346;2022-10-31T01:39:30;101734.53;;;16.98;63.64
62600;BME280;48671;48.922;2.346;2022-10-31T01:41:56;101729.59;;;16.92;63.25
62600;BME280;48671;48.922;2.346;2022-10-31T01:49:51;101733.91;;;16.93;63.88
62600;BME280;48671;48.922;2.346;2022-10-31T01:52:26;101727.78;;;16.75;64.04
62600;BME280;48671;48.922;2.346;2022-10-31T01:55:16;101732.31;;;16.71;63.66
62600;BME280;48671;48.922;2.346;2022-10-31T01:57:47;101725.63;;;16.64;63.72
62600;BME280;48671;48.922;2.346;2022-10-31T02:00:13;101705.00;;;16.37;64.13
62600;BME280;48671;48.922;2.346;2022-10-31T02:02:39;101716.91;;;16.45;64.36
62600;BME280;48671;48.922;2.346;2022-10-31T02:05:09;101703.72;;;16.46;64.17
62600;BME280;48671;48.922;2.346;2022-10-31T02:07:55;101733.59;;;16.62;64.27
62600;BME280;48671;48.922;2.346;2022-10-31T02:10:23;101716.47;;;16.54;64.18
62600;BME280;48671;48.922;2.346;2022-10-31T02:12:51;101709.53;;;16.53;64.68
62600;BME280;48671;48.922;2.346;2022-10-31T02:15:18;101733.75;;;16.59;64.40
62600;BME280;48671;48.922;2.346;2022-10-31T02:17:43;101727.22;;;16.49;64.83
62600;BME280;48671;48.922;2.346;2022-10-31T02:20:20;101729.00;;;16.49;64.92
62600;BME280;48671;48.922;2.346;2022-10-31T02:23:14;101727.38;;;16.46;64.96
62600;BME280;48671;48.922;2.346;2022-10-31T02:33:25;101697.13;;;16.37;65.16
62600;BME280;48671;48.922;2.346;2022-10-31T02:36:04;101690.25;;;16.35;65.21
62600;BME280;48671;48.922;2.346;2022-10-31T02:41:44;101707.91;;;16.31;65.66
62600;BME280;48671;48.922;2.346;2022-10-31T02:44:33;101697.72;;;16.25;65.45
62600;BME280;48671;48.922;2.346;2022-10-31T02:50:00;101690.75;;;16.24;65.49
62600;BME280;48671;48.922;2.346;2022-10-31T02:52:29;101688.91;;;16.26;65.76
62600;BME280;48671;48.922;2.346;2022-10-31T02:54:55;101670.09;;;16.17;65.42
62600;BME280;48671;48.922;2.346;2022-10-31T02:57:33;101692.28;;;16.28;65.26
62600;BME280;48671;48.922;2.346;2022-10-31T03:00:08;101691.53;;;16.26;65.35
62600;BME280;48671;48.922;2.346;2022-10-31T03:02:45;101686.19;;;16.28;65.39
62600;BME280;48671;48.922;2.346;2022-10-31T03:05:38;101677.63;;;16.24;65.84
62600;BME280;48671;48.922;2.346;2022-10-31T03:11:01;101667.75;;;16.10;65.48
62600;BME280;48671;48.922;2.346;2022-10-31T03:13:47;101683.78;;;16.23;66.16
62600;BME280;48671;48.922;2.346;2022-10-31T03:18:43;101680.09;;;16.27;65.58
62600;BME280;48671;48.922;2.346;2022-10-31T03:21:35;101670.72;;;16.22;66.07
62600;BME280;48671;48.922;2.346;2022-10-31T03:24:03;101628.94;;;15.98;66.18
62600;BME280;48671;48.922;2.346;2022-10-31T03:26:31;101620.38;;;15.95;65.78
62600;BME280;48671;48.922;2.346;2022-10-31T03:29:02;101685.91;;;16.34;65.51
62600;BME280;48671;48.922;2.346;2022-10-31T03:31:36;101666.81;;;16.30;65.86
62600;BME280;48671;48.922;2.346;2022-10-31T03:34:04;101679.53;;;16.39;65.42
62600;BME280;48671;48.922;2.346;2022-10-31T03:36:33;101656.25;;;16.32;65.99
62600;BME280;48671;48.922;2.346;2022-10-31T03:39:02;101640.66;;;16.29;65.80
62600;BME280;48671;48.922;2.346;2022-10-31T03:41:34;101648.28;;;16.33;65.20
62600;BME280;48671;48.922;2.346;2022-10-31T03:44:08;101620.22;;;16.17;65.96
62600;BME280;48671;48.922;2.346;2022-10-31T03:46:35;101647.50;;;16.31;65.95
62600;BME280;48671;48.922;2.346;2022-10-31T03:49:02;101651.78;;;16.34;65.79
62600;BME280;48671;48.922;2.346;2022-10-31T03:51:44;101627.56;;;16.27;65.40
62600;BME280;48671;48.922;2.346;2022-10-31T03:56:52;101612.63;;;16.10;65.83
62600;BME280;48671;48.922;2.346;2022-10-31T03:59:26;101619.72;;;16.08;66.02
62600;BME280;48671;48.922;2.346;2022-10-31T04:02:00;101603.63;;;15.97;66.17
62600;BME280;48671;48.922;2.346;2022-10-31T04:04:28;101592.06;;;15.82;66.36
62600;BME280;48671;48.922;2.346;2022-10-31T04:06:58;101594.28;;;15.73;67.17
62600;BME280;48671;48.922;2.346;2022-10-31T04:09:27;101594.69;;;15.63;67.48
62600;BME280;48671;48.922;2.346;2022-10-31T04:11:54;101606.22;;;15.59;67.59
62600;BME280;48671;48.922;2.346;2022-10-31T04:14:24;101591.91;;;15.48;67.54
62600;BME280;48671;48.922;2.346;2022-10-31T04:16:51;101618.47;;;15.59;67.41
62600;BME280;48671;48.922;2.346;2022-10-31T04:19:16;101594.53;;;15.48;69.04
62600;BME280;48671;48.922;2.346;2022-10-31T04:21:42;101625.28;;;15.63;68.69
62600;BME280;48671;48.922;2.346;2022-10-31T04:24:08;101630.53;;;15.63;68.35
62600;BME280;48671;48.922;2.346;2022-10-31T04:26:34;101616.94;;;15.55;68.47
62600;BME280;48671;48.922;2.346;2022-10-31T04:28:59;101603.09;;;15.51;68.81
62600;BME280;48671;48.922;2.346;2022-10-31T04:31:25;101617.38;;;15.64;68.58
62600;BME280;48671;48.922;2.346;2022-10-31T04:33:50;101614.66;;;15.66;68.47
62600;BME280;48671;48.922;2.346;2022-10-31T04:36:15;101628.91;;;15.81;68.42
62600;BME280;48671;48.922;2.346;2022-10-31T04:38:41;101630.16;;;15.91;68.29
62600;BME280;48671;48.922;2.346;2022-10-31T04:41:06;101622.16;;;15.94;67.72
62600;BME280;48671;48.922;2.346;2022-10-31T04:43:31;101598.19;;;15.83;67.80
62600;BME280;48671;48.922;2.346;2022-10-31T04:45:56;101624.91;;;16.10;67.26
62600;BME280;48671;48.922;2.346;2022-10-31T04:48:22;101605.97;;;16.03;67.54
62600;BME280;48671;48.922;2.346;2022-10-31T04:50:47;101597.16;;;16.04;67.62
62600;BME280;48671;48.922;2.346;2022-10-31T04:53:12;101593.59;;;16.05;67.51
62600;BME280;48671;48.922;2.346;2022-10-31T04:55:37;101595.25;;;16.08;67.60
62600;BME280;48671;48.922;2.346;2022-10-31T04:58:03;101606.53;;;16.10;67.34
62600;BME280;48671;48.922;2.346;2022-10-31T05:00:28;101588.69;;;15.99;67.65
62600;BME280;48671;48.922;2.346;2022-10-31T05:02:55;101596.41;;;16.02;67.49
62600;BME280;48671;48.922;2.346;2022-10-31T05:05:24;101592.22;;;15.98;67.74
62600;BME280;48671;48.922;2.346;2022-10-31T05:07:50;101558.84;;;15.83;67.96
62600;BME280;48671;48.922;2.346;2022-10-31T05:10:25;101584.41;;;15.97;67.94
62600;BME280;48671;48.922;2.346;2022-10-31T05:12:58;101574.34;;;15.87;67.92
62600;BME280;48671;48.922;2.346;2022-10-31T05:15:26;101560.66;;;15.81;68.89
62600;BME280;48671;48.922;2.346;2022-10-31T05:17:52;101588.47;;;15.85;69.18
62600;BME280;48671;48.922;2.346;2022-10-31T05:20:20;101581.09;;;15.74;69.74
62600;BME280;48671;48.922;2.346;2022-10-31T05:22:48;101573.44;;;15.70;68.56
62600;BME280;48671;48.922;2.346;2022-10-31T05:25:14;101569.31;;;15.64;69.12
62600;BME280;48671;48.922;2.346;2022-10-31T05:27:40;101562.06;;;15.69;68.94
62600;BME280;48671;48.922;2.346;2022-10-31T05:30:07;101544.59;;;15.70;69.03
62600;BME280;48671;48.922;2.346;2022-10-31T05:32:40;101538.88;;;15.79;69.02
62600;BME280;48671;48.922;2.346;2022-10-31T05:35:07;101515.66;;;15.71;68.58
62600;BME280;48671;48.922;2.346;2022-10-31T05:37:35;101529.97;;;15.83;68.32
62600;BME280;48671;48.922;2.346;2022-10-31T05:40:04;101547.19;;;15.88;68.48
62600;BME280;48671;48.922;2.346;2022-10-31T05:42:30;101532.66;;;15.81;68.88
62600;BME280;48671;48.922;2.346;2022-10-31T05:44:55;101535.28;;;15.81;68.40
62600;BME280;48671;48.922;2.346;2022-10-31T05:47:20;101548.19;;;15.86;68.55
62600;BME280;48671;48.922;2.346;2022-10-31T05:49:46;101510.50;;;15.70;68.65
62600;BME280;48671;48.922;2.346;2022-10-31T05:52:11;101541.22;;;15.85;69.08
62600;BME280;48671;48.922;2.346;2022-10-31T05:54:36;101542.16;;;15.84;69.88
62600;BME280;48671;48.922;2.346;2022-10-31T05:57:02;101547.59;;;15.79;69.21
62600;BME280;48671;48.922;2.346;2022-10-31T05:59:27;101527.78;;;15.74;69.39
62600;BME280;48671;48.922;2.346;2022-10-31T06:01:52;101540.38;;;15.84;69.27
62600;BME280;48671;48.922;2.346;2022-10-31T06:04:18;101523.84;;;15.82;69.39
62600;BME280;48671;48.922;2.346;2022-10-31T06:06:43;101487.97;;;15.64;68.92
62600;BME280;48671;48.922;2.346;2022-10-31T06:09:08;101518.25;;;15.90;69.33
62600;BME280;48671;48.922;2.346;2022-10-31T06:11:34;101511.81;;;15.78;69.06
62600;BME280;48671;48.922;2.346;2022-10-31T06:13:59;101528.81;;;15.88;69.31
62600;BME280;48671;48.922;2.346;2022-10-31T06:16:25;101529.66;;;15.89;69.53
62600;BME280;48671;48.922;2.346;2022-10-31T06:18:50;101485.63;;;15.58;69.45
62600;BME280;48671;48.922;2.346;2022-10-31T06:21:15;101513.19;;;15.85;69.51
62600;BME280;48671;48.922;2.346;2022-10-31T06:23:40;101502.09;;;15.80;69.07
62600;BME280;48671;48.922;2.346;2022-10-31T06:26:06;101502.66;;;15.87;69.76
62600;BME280;48671;48.922;2.346;2022-10-31T06:28:31;101475.44;;;15.71;69.36
62600;BME280;48671;48.922;2.346;2022-10-31T06:30:56;101459.31;;;15.59;69.08
62600;BME280;48671;48.922;2.346;2022-10-31T06:33:22;101519.88;;;15.93;69.19
62600;BME280;48671;48.922;2.346;2022-10-31T06:35:47;101494.97;;;15.82;69.38
62600;BME280;48671;48.922;2.346;2022-10-31T06:38:13;101503.63;;;15.84;69.05
62600;BME280;48671;48.922;2.346;2022-10-31T06:40:38;101515.63;;;15.90;69.17
62600;BME280;48671;48.922;2.346;2022-10-31T06:43:04;101492.91;;;15.89;69.47
62600;BME280;48671;48.922;2.346;2022-10-31T06:45:29;101502.22;;;15.96;69.54
62600;BME280;48671;48.922;2.346;2022-10-31T06:47:55;101494.47;;;15.93;68.92
62600;BME280;48671;48.922;2.346;2022-10-31T06:50:21;101509.78;;;16.02;69.42
62600;BME280;48671;48.922;2.346;2022-10-31T06:52:55;101507.22;;;16.01;69.07
62600;BME280;48671;48.922;2.346;2022-10-31T06:55:22;101498.78;;;15.94;69.33
62600;BME280;48671;48.922;2.346;2022-10-31T06:57:55;101508.84;;;16.03;69.33
62600;BME280;48671;48.922;2.346;2022-10-31T07:00:21;101506.09;;;16.06;69.45
62600;BME280;48671;48.922;2.346;2022-10-31T07:03:01;101504.22;;;16.08;69.10
62600;BME280;48671;48.922;2.346;2022-10-31T07:05:28;101504.06;;;16.11;69.00
62600;BME280;48671;48.922;2.346;2022-10-31T07:07:55;101489.50;;;16.06;68.99
62600;BME280;48671;48.922;2.346;2022-10-31T07:10:21;101485.78;;;16.10;68.80
62600;BME280;48671;48.922;2.346;2022-10-31T07:12:46;101496.81;;;16.17;68.50
62600;BME280;48671;48.922;2.346;2022-10-31T07:15:12;101487.31;;;16.14;68.99
62600;BME280;48671;48.922;2.346;2022-10-31T07:17:37;101495.03;;;16.17;68.80
62600;BME280;48671;48.922;2.346;2022-10-31T07:20:03;101491.63;;;16.15;68.60
62600;BME280;48671;48.922;2.346;2022-10-31T07:22:34;101500.16;;;16.20;69.18
62600;BME280;48671;48.922;2.346;2022-10-31T07:24:59;101491.19;;;16.07;68.83
62600;BME280;48671;48.922;2.346;2022-10-31T07:27:24;101469.28;;;15.89;69.37
62600;BME280;48671;48.922;2.346;2022-10-31T07:29:50;101485.59;;;15.96;69.41
62600;BME280;48671;48.922;2.346;2022-10-31T07:32:15;101462.75;;;15.80;69.16
62600;BME280;48671;48.922;2.346;2022-10-31T07:34:40;101481.06;;;15.99;69.55
62600;BME280;48671;48.922;2.346;2022-10-31T07:37:06;101469.63;;;16.00;69.13
62600;BME280;48671;48.922;2.346;2022-10-31T07:39:31;101487.47;;;16.11;69.14
62600;BME280;48671;48.922;2.346;2022-10-31T07:41:58;101501.44;;;16.11;69.64
62600;BME280;48671;48.922;2.346;2022-10-31T07:44:23;101478.59;;;15.96;69.36
62600;BME280;48671;48.922;2.346;2022-10-31T07:46:49;101488.84;;;16.01;69.14
62600;BME280;48671;48.922;2.346;2022-10-31T07:49:14;101486.66;;;15.91;70.02
62600;BME280;48671;48.922;2.346;2022-10-31T07:51:39;101487.66;;;15.89;70.16
62600;BME280;48671;48.922;2.346;2022-10-31T07:54:05;101485.03;;;15.89;69.65
62600;BME280;48671;48.922;2.346;2022-10-31T07:56:30;101498.00;;;15.92;69.21
62600;BME280;48671;48.922;2.346;2022-10-31T07:58:55;101489.44;;;15.88;69.90
62600;BME280;48671;48.922;2.346;2022-10-31T08:01:20;101495.03;;;16.00;69.57
62600;BME280;48671;48.922;2.346;2022-10-31T08:03:46;101491.41;;;16.02;69.62
62600;BME280;48671;48.922;2.346;2022-10-31T08:06:11;101492.41;;;16.00;69.89
62600;BME280;48671;48.922;2.346;2022-10-31T08:08:36;101467.59;;;15.88;69.65
62600;BME280;48671;48.922;2.346;2022-10-31T08:11:02;101489.69;;;16.01;70.07
62600;BME280;48671;48.922;2.346;2022-10-31T08:13:27;101486.16;;;16.02;69.60
62600;BME280;48671;48.922;2.346;2022-10-31T08:15:53;101482.50;;;16.05;69.94
62600;BME280;48671;48.922;2.346;2022-10-31T08:18:19;101482.50;;;16.05;70.03
62600;BME280;48671;48.922;2.346;2022-10-31T08:20:47;101487.00;;;16.03;70.33
62600;BME280;48671;48.922;2.346;2022-10-31T08:23:12;101476.81;;;15.97;70.52
62600;BME280;48671;48.922;2.346;2022-10-31T08:25:39;101486.22;;;16.01;70.13
62600;BME280;48671;48.922;2.346;2022-10-31T08:28:06;101482.97;;;15.96;70.42
62600;BME280;48671;48.922;2.346;2022-10-31T08:30:33;101478.66;;;15.95;70.51
62600;BME280;48671;48.922;2.346;2022-10-31T08:33:12;101463.28;;;15.87;70.63
62600;BME280;48671;48.922;2.346;2022-10-31T08:35:38;101462.16;;;15.93;70.64
62600;BME280;48671;48.922;2.346;2022-10-31T08:38:04;101447.44;;;15.88;70.67
62600;BME280;48671;48.922;2.346;2022-10-31T08:40:31;101445.38;;;15.95;70.57
62600;BME280;48671;48.922;2.346;2022-10-31T08:43:02;101415.50;;;15.80;70.39
62600;BME280;48671;48.922;2.346;2022-10-31T08:45:29;101438.44;;;15.94;70.75
62600;BME280;48671;48.922;2.346;2022-10-31T08:47:59;101438.53;;;15.93;71.63
62600;BME280;48671;48.922;2.346;2022-10-31T08:50:26;101389.03;;;15.66;70.84
62600;BME280;48671;48.922;2.346;2022-10-31T08:52:51;101393.28;;;15.70;70.66
62600;BME280;48671;48.922;2.346;2022-10-31T08:55:17;101362.28;;;15.59;71.04
62600;BME280;48671;48.922;2.346;2022-10-31T08:57:44;101416.34;;;15.98;70.73
62600;BME280;48671;48.922;2.346;2022-10-31T09:00:10;101406.84;;;15.96;71.24
62600;BME280;48671;48.922;2.346;2022-10-31T09:02:35;101371.59;;;15.84;71.22
62600;BME280;48671;48.922;2.346;2022-10-31T09:05:03;101317.38;;;15.65;70.86
62600;BME280;48671;48.922;2.346;2022-10-31T09:07:29;101355.13;;;15.98;70.88
62600;BME280;48671;48.922;2.346;2022-10-31T09:09:54;101332.63;;;15.94;70.43
62600;BME280;48671;48.922;2.346;2022-10-31T09:12:21;101378.38;;;16.23;70.50
62600;BME280;48671;48.922;2.346;2022-10-31T09:14:46;101356.31;;;16.09;70.25
62600;BME280;48671;48.922;2.346;2022-10-31T09:17:12;101365.94;;;16.26;69.97
62600;BME280;48671;48.922;2.346;2022-10-31T09:19:37;101320.31;;;16.11;70.02
62600;BME280;48671;48.922;2.346;2022-10-31T09:22:02;101353.22;;;16.34;70.18
62600;BME280;48671;48.922;2.346;2022-10-31T09:24:28;101346.97;;;16.37;70.01
62600;BME280;48671;48.922;2.346;2022-10-31T09:26:53;101335.00;;;16.31;70.02
62600;BME280;48671;48.922;2.346;2022-10-31T09:29:18;101312.63;;;16.24;69.67
62600;BME280;48671;48.922;2.346;2022-10-31T09:31:44;101333.50;;;16.43;69.65
62600;BME280;48671;48.922;2.346;2022-10-31T09:34:09;101297.88;;;16.22;69.66
62600;BME280;48671;48.922;2.346;2022-10-31T09:36:35;101290.31;;;16.33;69.38
62600;BME280;48671;48.922;2.346;2022-10-31T09:39:00;101295.75;;;16.46;69.15
62600;BME280;48671;48.922;2.346;2022-10-31T09:44:47;101348.34;;;17.09;68.44
62600;BME280;48671;48.922;2.346;2022-10-31T09:50:22;101301.16;;;17.22;68.51
62600;BME280;48671;48.922;2.346;2022-10-31T09:53:00;101273.53;;;17.45;67.99
62600;BME280;48671;48.922;2.346;2022-10-31T09:55:36;101311.25;;;18.04;67.50
62600;BME280;48671;48.922;2.346;2022-10-31T09:58:02;101252.88;;;17.97;65.90
62600;BME280;48671;48.922;2.346;2022-10-31T10:00:29;101268.75;;;18.24;65.90
62600;BME280;48671;48.922;2.346;2022-10-31T10:03:35;101309.56;;;18.75;65.58
62600;BME280;48671;48.922;2.346;2022-10-31T10:06:19;101312.53;;;18.97;64.21
62600;BME280;48671;48.922;2.346;2022-10-31T10:08:47;101283.16;;;18.89;62.97
62600;BME280;48671;48.922;2.346;2022-10-31T10:11:41;101315.25;;;19.23;63.04
62600;BME280;48671;48.922;2.346;2022-10-31T10:16:45;101301.94;;;19.51;61.31
62600;BME280;48671;48.922;2.346;2022-10-31T10:24:39;101264.19;;;19.89;61.18
62600;BME280;48671;48.922;2.346;2022-10-31T10:27:19;101252.13;;;19.98;60.27
62600;BME280;48671;48.922;2.346;2022-10-31T10:29:57;101216.66;;;19.63;60.06
62600;BME280;48671;48.922;2.346;2022-10-31T10:32:26;101242.09;;;19.64;60.29
62600;BME280;48671;48.922;2.346;2022-10-31T10:34:59;101217.78;;;19.34;60.75
62600;BME280;48671;48.922;2.346;2022-10-31T10:37:31;101246.88;;;19.32;61.04
62600;BME280;48671;48.922;2.346;2022-10-31T10:40:13;101228.19;;;19.10;61.15
62600;BME280;48671;48.922;2.346;2022-10-31T10:42:39;101216.53;;;19.00;61.68
62600;BME280;48671;48.922;2.346;2022-10-31T10:45:23;101208.94;;;18.95;61.64
62600;BME280;48671;48.922;2.346;2022-10-31T10:50:53;101220.91;;;19.13;62.09
62600;BME280;48671;48.922;2.346;2022-10-31T10:53:40;101206.66;;;19.16;61.45
62600;BME280;48671;48.922;2.346;2022-10-31T10:59:21;101197.19;;;19.39;61.70
62600;BME280;48671;48.922;2.346;2022-10-31T11:01:50;101172.72;;;19.62;62.03
62600;BME280;48671;48.922;2.346;2022-10-31T11:04:34;101157.97;;;20.09;60.80
62600;BME280;48671;48.922;2.346;2022-10-31T11:07:09;101125.00;;;20.39;59.72
62600;BME280;48671;48.922;2.346;2022-10-31T11:09:35;101128.09;;;20.81;58.88
62600;BME280;48671;48.922;2.346;2022-10-31T11:12:10;101117.47;;;21.16;56.09
62600;BME280;48671;48.922;2.346;2022-10-31T11:15:02;101117.94;;;21.21;55.25
62600;BME280;48671;48.922;2.346;2022-10-31T11:17:36;101088.00;;;21.21;56.00
62600;BME280;48671;48.922;2.346;2022-10-31T11:20:17;101115.72;;;21.50;55.78
62600;BME280;48671;48.922;2.346;2022-10-31T11:22:48;101078.91;;;21.36;54.62
62600;BME280;48671;48.922;2.346;2022-10-31T11:25:22;101110.94;;;21.56;55.15
62600;BME280;48671;48.922;2.346;2022-10-31T11:28:08;101121.03;;;21.62;54.93
62600;BME280;48671;48.922;2.346;2022-10-31T11:30:55;101135.22;;;21.72;54.63
62600;BME280;48671;48.922;2.346;2022-10-31T11:33:28;101125.94;;;21.89;54.55
62600;BME280;48671;48.922;2.346;2022-10-31T11:35:54;101118.66;;;22.13;54.50
62600;BME280;48671;48.922;2.346;2022-10-31T11:38:22;101105.53;;;22.23;54.22
62600;BME280;48671;48.922;2.346;2022-10-31T11:40:57;101102.34;;;22.40;52.44
62600;BME280;48671;48.922;2.346;2022-10-31T11:43:23;101054.56;;;22.31;53.28
62600;BME280;48671;48.922;2.346;2022-10-31T11:45:50;101099.41;;;22.76;51.79
62600;BME280;48671;48.922;2.346;2022-10-31T11:48:18;101040.94;;;22.56;51.42
62600;BME280;48671;48.922;2.346;2022-10-31T11:50:51;101048.09;;;22.65;49.75
62600;BME280;48671;48.922;2.346;2022-10-31T11:53:25;101054.25;;;22.66;49.37
62600;BME280;48671;48.922;2.346;2022-10-31T11:56:21;101062.56;;;22.82;49.73
62600;BME280;48671;48.922;2.346;2022-10-31T11:58:57;101057.56;;;23.00;47.29
62600;BME280;48671;48.922;2.346;2022-10-31T12:01:29;101080.31;;;23.24;49.48
62600;BME280;48671;48.922;2.346;2022-10-31T12:04:11;101062.59;;;23.34;49.82
62600;BME280;48671;48.922;2.346;2022-10-31T12:06:39;101067.56;;;23.48;47.63
62600;BME280;48671;48.922;2.346;2022-10-31T12:11:56;101060.09;;;23.32;48.19
62600;BME280;48671;48.922;2.346;2022-10-31T12:14:36;101045.31;;;22.88;48.78
62600;BME280;48671;48.922;2.346;2022-10-31T12:17:13;101057.19;;;22.63;48.45
62600;BME280;48671;48.922;2.346;2022-10-31T12:25:33;101051.38;;;21.93;51.70
62600;BME280;48671;48.922;2.346;2022-10-31T12:28:04;101055.03;;;21.81;51.83
62600;BME280;48671;48.922;2.346;2022-10-31T12:36:43;101023.06;;;21.62;53.13
62600;BME280;48671;48.922;2.346;2022-10-31T12:42:12;101003.66;;;21.61;52.34
62600;BME280;48671;48.922;2.346;2022-10-31T12:47:55;100994.63;;;21.64;52.41
62600;BME280;48671;48.922;2.346;2022-10-31T12:54:05;100976.66;;;22.11;51.59
62600;BME280;48671;48.922;2.346;2022-10-31T13:07:05;100968.75;;;23.04;49.33
62600;BME280;48671;48.922;2.346;2022-10-31T13:09:40;100961.81;;;23.13;49.57
62600;BME280;48671;48.922;2.346;2022-10-31T13:12:10;100966.72;;;23.27;49.39
62600;BME280;48671;48.922;2.346;2022-10-31T13:14:45;100958.75;;;23.27;49.82
62600;BME280;48671;48.922;2.346;2022-10-31T13:17:30;100971.22;;;23.36;49.05
62600;BME280;48671;48.922;2.346;2022-10-31T13:22:33;100942.47;;;23.51;48.70
62600;BME280;48671;48.922;2.346;2022-10-31T13:25:23;100912.66;;;23.48;49.11
62600;BME280;48671;48.922;2.346;2022-10-31T13:27:59;100922.06;;;23.62;48.78
62600;BME280;48671;48.922;2.346;2022-10-31T13:30:29;100919.53;;;23.60;48.42
62600;BME280;48671;48.922;2.346;2022-10-31T13:35:40;100909.66;;;23.81;48.36
62600;BME280;48671;48.922;2.346;2022-10-31T13:38:24;100920.97;;;23.83;48.41
62600;BME280;48671;48.922;2.346;2022-10-31T13:41:13;100903.09;;;23.86;48.50
62600;BME280;48671;48.922;2.346;2022-10-31T13:44:01;100907.56;;;23.85;47.84
62600;BME280;48671;48.922;2.346;2022-10-31T13:46:39;100907.28;;;23.88;48.64
62600;BME280;48671;48.922;2.346;2022-10-31T13:54:36;100904.16;;;23.64;48.20
62600;BME280;48671;48.922;2.346;2022-10-31T13:57:06;100899.41;;;23.48;48.75
62600;BME280;48671;48.922;2.346;2022-10-31T13:59:36;100894.94;;;23.48;49.11
62600;BME280;48671;48.922;2.346;2022-10-31T14:02:14;100887.09;;;23.47;49.74
62600;BME280;48671;48.922;2.346;2022-10-31T14:04:56;100868.25;;;23.50;49.68
62600;BME280;48671;48.922;2.346;2022-10-31T14:07:24;100872.84;;;23.57;49.20
62600;BME280;48671;48.922;2.346;2022-10-31T14:10:05;100873.81;;;23.37;49.64
62600;BME280;48671;48.922;2.346;2022-10-31T14:15:11;100853.88;;;22.83;50.50
62600;BME280;48671;48.922;2.346;2022-10-31T14:17:54;100859.00;;;22.75;51.52
62600;BME280;48671;48.922;2.346;2022-10-31T14:20:33;100857.44;;;22.72;51.21
62600;BME280;48671;48.922;2.346;2022-10-31T14:23:09;100845.34;;;22.79;51.41
62600;BME280;48671;48.922;2.346;2022-10-31T14:25:36;100856.25;;;22.86;51.47
62600;BME280;48671;48.922;2.346;2022-10-31T14:28:20;100847.28;;;22.77;51.49
62600;BME280;48671;48.922;2.346;2022-10-31T14:30:54;100841.97;;;22.77;51.96
62600;BME280;48671;48.922;2.346;2022-10-31T14:33:20;100849.91;;;22.67;52.05
62600;BME280;48671;48.922;2.346;2022-10-31T14:35:56;100849.13;;;22.56;52.03
62600;BME280;48671;48.922;2.346;2022-10-31T14:38:52;100831.06;;;22.30;52.64
62600;BME280;48671;48.922;2.346;2022-10-31T14:52:16;100822.28;;;21.88;53.51